White Mountain Summit Weather observations

Data are for 10 minute period ending at time listed.
 Day   Time   Solar   Ave.   Ave.  Ave.  Vector    Max.    Baro.  
  of    of     Rad.   Air    Rel.  Wind   Wind     Wind   Press.  
Year   Day            Temp.  Hum.  Speed  Dir.     Gust           
2015   (PST)   W/m2    F      %     mph   deg.      mph     mb.   
-------------------------------------------------------------------
  28   17:00    0.0    26   67.5     0      0.0     0.0   999.0 
  28   17:10    0.0    25   72.7     0      0.0     0.0   999.0 
  28   17:20    0.0    25   74.8     0      0.0     0.0   999.0 
  28   17:30    0.0    26   73.9     0      0.0     0.0   999.0 
  28   17:40    0.0    24   69.9     0      0.0     0.0   999.0 
  28   17:50    0.0    22   66.8     0      0.0     0.0   999.0 
  28   18:00    0.0    21   70.6     0     88.0     2.4   999.0 
  28   18:10    0.0    21   69.5     2     79.8     7.1   999.0 
  28   18:20    0.0    20   67.5     2     90.5     4.7   999.0 
  28   18:30    0.0    20   70.2     1     84.3     2.4   999.0 
  28   18:40    0.0    20   68.5     0     88.3     2.4   999.0 
  28   18:50    0.0    21   65.1     0    103.6     4.7   999.0 
  28   19:00    0.0    20   63.7     3    107.1     4.7   999.0 
  28   19:10    0.0    19   64.9     1    104.0     4.7   999.0 
  28   19:20    0.0    19   64.7     1    112.9     2.4   999.0 
  28   19:30    0.0    19   63.6     0      0.0     0.0   999.0 
  28   19:40    0.0    20   60.9     0      0.0     0.0   999.0 
  28   19:50    0.0    19   61.8     0      0.0     0.0   999.0 
  28   20:00    0.0    19   61.7     0      0.0     0.0   999.0 
  28   20:10    0.0    18   61.7     0      0.0     0.0   999.0 
  28   20:20    0.0    18   63.0     0      0.0     0.0   999.0 
  28   20:30    0.0    17   64.9     0      0.0     0.0   999.0 
  28   20:40    0.0    17   65.3     0      0.0     0.0   999.0 
  28   20:50    0.0    17   63.6     0      0.0     0.0   999.0 
  28   21:00    0.0    17   60.3     0      0.0     0.0   999.0 
  28   21:10    0.0    17   58.8     0    157.8     2.4   999.0 
  28   21:20    0.0    16   63.1     1    156.1     2.4   999.0 
  28   21:30    0.0    16   68.0     1    167.8     2.4   999.0 
  28   21:40    0.0    15   67.6     1    173.6     2.4   999.0 
  28   21:50    0.0    15   64.3     2    177.4     2.4   999.0 
  28   22:00    0.0    15   62.3     2    186.3     2.4   999.0 
  28   22:10    0.0    15   60.4     2    181.4     2.4   999.0 
  28   22:20    0.0    16   57.6     2    175.5     2.4   999.0 
  28   22:30    0.0    15   58.7     2    169.3     2.4   999.0 
  28   22:40    0.0    16   57.1     2    165.2     2.4   999.0 
  28   22:50    0.0    15   57.7     2    178.3     2.4   999.0 
  28   23:00    0.0    15   59.0     2    173.7     2.4   999.0 
  28   23:10    0.0    16   58.6     2    195.8     4.7   999.0 
  28   23:20    0.0    15   59.5     3    200.2     4.7   999.0 
  28   23:30    0.0    16   61.0     2    206.4     4.7   999.0 
  28   23:40    0.0    16   62.2     2    202.5     4.7   999.0 
  28   23:50    0.0    16   61.4     2    197.0     2.4   999.0 
  29    0:00    0.0    16   63.1     2    200.5     4.7   999.0 
  29    0:10    0.0    16   63.1     2    193.7     2.4   999.0 
  29    0:20    0.0    16   62.1     1    203.0     2.4   999.0 
  29    0:30    0.0    16   63.0     0    217.3     2.4   999.0 
  29    0:40    0.0    15   65.4     0      0.0     0.0   999.0 
  29    0:50    0.0    16   63.3     1    201.9     2.4   999.0 
  29    1:00    0.0    16   63.4     1    210.5     2.4   999.0 
  29    1:10    0.0    16   62.8     1    210.6     2.4   999.0 
  29    1:20    0.0    16   62.7     1    219.8     2.4   999.0 
  29    1:30    0.0    16   62.5     1    210.8     2.4   999.0 
  29    1:40    0.0    15   63.9     0    201.8     2.4   999.0 
  29    1:50    0.0    16   60.3     0      0.0     0.0   999.0 
  29    2:00    0.0    16   59.7     0      0.0     0.0   999.0 
  29    2:10    0.0    16   59.7     0      0.0     0.0   999.0 
  29    2:20    0.0    16   64.1     0    244.7     2.4   999.0 
  29    2:30    0.0    16   62.5     0      0.0     0.0   999.0 
  29    2:40    0.0    16   64.6     0      0.0     0.0   999.0 
  29    2:50    0.0    16   64.8     0      0.0     0.0   999.0 
  29    3:00    0.0    16   65.6     0      0.0     0.0   999.0 
  29    3:10    0.0    16   67.0     0      0.0     0.0   999.0 
  29    3:20    0.0    16   67.2     0      0.0     0.0   999.0 
  29    3:30    0.0    16   67.3     0      0.0     0.0   999.0 
  29    3:40    0.0    16   68.3     0      0.0     0.0   999.0 
  29    3:50    0.0    16   67.2     0      0.0     0.0   999.0 
  29    4:00    0.0    16   65.5     0      0.0     0.0   999.0 
  29    4:10    0.0    16   63.7     0      0.0     0.0   999.0 
  29    4:20    0.0    17   62.7     0      0.0     0.0   999.0 
  29    4:30    0.0    16   63.9     0      0.0     0.0   999.0 
  29    4:40    0.0    16   61.0     0      0.0     0.0   999.0 
  29    4:50    0.0    16   59.1     0      0.0     0.0   999.0 
  29    5:00    0.0    16   57.3     0      0.0     0.0   999.0 
  29    5:10    0.0    16   55.8     0      0.0     0.0   999.0 
  29    5:20    0.0    16   58.7     0      0.0     0.0   999.0 
  29    5:30    0.0    16   56.2     0      0.0     0.0   999.0 
  29    5:40    0.0    16   56.3     0      0.0     0.0   999.0 
  29    5:50    0.0    16   53.6     0      0.0     0.0   999.0 
  29    6:00    0.0    16   53.1     0      0.0     0.0   999.0 
  29    6:10    0.0    16   54.9     0      0.0     0.0   999.0 
  29    6:20    0.0    16   56.2     0      0.0     0.0   999.0 
  29    6:30    0.0    16   58.6     0      0.0     0.0   999.0 
  29    6:40    0.0    16   63.3     0      0.0     0.0   999.0 
  29    6:50    0.0    16   56.9     0      0.0     0.0   999.0 
  29    7:00    0.0    16   59.0     0      0.0     0.0   999.0 
  29    7:10    0.0    16   64.2     0      0.0     0.0   999.0 
  29    7:20    0.0    16   61.8     0      0.0     0.0   999.0 
  29    7:30    0.0    17   57.7     0      0.0     0.0   999.0 
  29    7:40    0.0    17   59.2     0      0.0     0.0   999.0 
  29    7:50    0.0    17   61.4     0      0.0     0.0   999.0 
  29    8:00    0.0    18   57.3     0      0.0     0.0   999.0 
  29    8:10    0.0    18   55.0     0      0.0     0.0   999.0 
  29    8:20    0.0    18   55.4     0      0.0     0.0   999.0 
  29    8:30    0.0    18   56.1     0      0.0     0.0   999.0 
  29    8:40    0.0    19   55.0     0      0.0     0.0   999.0 
  29    8:50    0.0    18   57.7     0      0.0     0.0   999.0 
  29    9:00    0.0    19   58.0     0      0.0     0.0   999.0 
  29    9:10    0.0    18   58.5     0      0.0     0.0   999.0 
  29    9:20  123.0    18   57.6     0      0.0     0.0   999.0 
  29    9:30  916.0    18   58.9     0      0.0     0.0   999.0 
  29    9:40  889.0    18   56.2     0      0.0     0.0   999.0 
  29    9:50  272.0    18   58.1     0      0.0     0.0   999.0 
  29   10:00  294.0    18   56.8     0      0.0     0.0   999.0 
  29   10:10  178.0    18   56.0     0      0.0     0.0   999.0 
  29   10:20    0.0    18   56.6     0      0.0     0.0   999.0 
  29   10:30    0.0    19   54.8     0      0.0     0.0   999.0 
  29   10:40    1.0    22   51.8     0      0.0     0.0   999.0 
  29   10:50    2.0    23   56.0     0      0.0     0.0   999.0 
  29   11:00    0.0    23   61.3     0      0.0     0.0   999.0 
  29   11:10    0.0    23   56.0     0      0.0     0.0   999.0 
  29   11:20    0.0    24   52.1     0      0.0     0.0   999.0 
  29   11:30    0.0    23   54.8     0      0.0     0.0   999.0 
  29   11:40    0.0    23   55.4     0      0.0     0.0   999.0 
  29   11:50    0.0    23   52.7     0      0.0     0.0   999.0 
  29   12:00    0.0    23   53.5     0      0.0     0.0   999.0 
  29   12:10    0.0    23   54.8     0      0.0     0.0   999.0 
  29   12:20    0.0    22   54.1     0      0.0     0.0   999.0 
  29   12:30    0.0    21   54.0     0      0.0     0.0   999.0 
  29   12:40    0.0    23   52.7     0    278.6     2.4   999.0 
  29   12:50    0.0    24   50.5     0    275.0     2.4   999.0 
  29   13:00    0.0    23   49.0     3    275.2     4.7   999.0 
  29   13:10    0.0    22   52.2     3    276.1     4.7   999.0 
  29   13:20    0.0    22   53.1     4    276.3     4.7   999.0 
  29   13:30    0.0    21   54.3     4    275.0     4.7   999.0 
  29   13:40    0.0    21   54.9     4    275.6     4.7   999.0 
  29   13:50    0.0    20   57.5     4    275.1     4.7   999.0 
  29   14:00    0.0    20   59.5     4    276.7     4.7   999.0 
  29   14:10    0.0    20   60.9     3    274.6     4.7   999.0 
  29   14:20    0.0    21   59.8     3    276.1     4.7   999.0 
  29   14:30    0.0    20   61.3     3    274.1     4.7   999.0 
  29   14:40    0.0    20   62.5     4    275.2     4.7   999.0 
  29   14:50    0.0    20   62.6     4    279.0     4.7   999.0 
  29   15:00    0.0    20   62.6     4    284.3     4.7   999.0 
  29   15:10    0.0    19   65.4     4    280.3     7.1   999.0 
  29   15:20    0.0    19   67.4     4    279.9     4.7   999.0 
  29   15:30    0.0    19   70.7     4    280.3     4.7   999.0 
  29   15:40    0.0    19   69.6     4    279.5     4.7   999.0 
  29   15:50    0.0    19   71.4     4    280.9     4.7   999.0 
  29   16:00    0.0    18   74.7     4    281.0     4.7   999.0 
  29   16:10    0.0    18   77.6     4    281.2     4.7   999.0 
  29   16:20    0.0    18   77.7     4    282.8     4.7   999.0 
  29   16:30    0.0    17   80.5     4    279.3     4.7   999.0 
  29   16:40    0.0    17   82.8     3    276.8     4.7   999.0 
  29   16:50    0.0    16   82.8     3    278.9     4.7   999.0 

Return to White Mountain graphs page.


Western Regional Climate Center,wrcc@dri.edu